createdAt,value
2022-10-10T00:00:43.109Z,3.63
2022-10-10T00:01:44.504Z,4.90
2022-10-10T00:02:45.844Z,5.10
2022-10-10T00:03:47.209Z,4.03
2022-10-10T00:04:48.800Z,4.20
2022-10-10T00:05:50.092Z,5.53
2022-10-10T00:06:51.398Z,5.07
2022-10-10T00:07:52.793Z,4.70
2022-10-10T00:08:54.080Z,4.17
2022-10-10T00:09:55.420Z,6.17
2022-10-10T00:10:56.760Z,5.00
2022-10-10T00:11:58.102Z,5.20
2022-10-10T00:12:59.734Z,5.07
2022-10-10T00:14:01.081Z,3.20
2022-10-10T00:15:02.429Z,4.03
2022-10-10T00:16:04.362Z,4.23
2022-10-10T00:17:05.731Z,3.77
2022-10-10T00:18:07.277Z,4.70
2022-10-10T00:19:08.685Z,4.00
2022-10-10T00:20:13.645Z,6.17
2022-10-10T00:21:14.965Z,5.90
2022-10-10T00:22:16.293Z,6.07
2022-10-10T00:23:17.897Z,6.40
2022-10-10T00:24:19.201Z,3.67
2022-10-10T00:25:20.830Z,6.20
2022-10-10T00:26:22.209Z,4.83
2022-10-10T00:27:23.543Z,5.13
2022-10-10T00:28:24.995Z,5.20
2022-10-10T00:29:26.379Z,5.10
2022-10-10T00:30:27.686Z,3.60
2022-10-10T00:31:29.060Z,4.37
2022-10-10T00:32:30.611Z,3.73
2022-10-10T00:33:31.916Z,3.87
2022-10-10T00:34:33.281Z,4.37
2022-10-10T00:35:34.993Z,3.63
2022-10-10T00:36:36.357Z,3.93
2022-10-10T00:37:37.701Z,4.93
2022-10-10T00:38:39.065Z,5.63
2022-10-10T00:39:40.551Z,6.67
2022-10-10T00:40:46.553Z,7.07
2022-10-10T00:41:47.909Z,5.17
2022-10-10T00:42:49.551Z,3.90
2022-10-10T00:44:04.742Z,5.43
2022-10-10T00:45:25.057Z,5.47
2022-10-10T00:46:26.392Z,5.27
2022-10-10T00:47:27.680Z,6.33
2022-10-10T00:48:31.325Z,4.73
2022-10-10T00:49:34.517Z,4.33
2022-10-10T00:50:37.960Z,7.93
2022-10-10T00:51:39.336Z,5.47
2022-10-10T00:52:40.632Z,6.83
2022-10-10T00:53:50.774Z,4.47
2022-10-10T00:54:52.119Z,4.17
2022-10-10T00:55:54.087Z,4.03
2022-10-10T00:56:56.989Z,4.20
2022-10-10T00:57:58.410Z,4.80
2022-10-10T00:59:02.586Z,5.17
2022-10-10T01:00:04.697Z,5.73
2022-10-10T01:01:06.489Z,10.80
2022-10-10T01:02:08.101Z,6.97
2022-10-10T01:03:09.442Z,4.37
2022-10-10T01:04:28.190Z,4.67
2022-10-10T01:05:29.912Z,5.07
2022-10-10T01:06:31.941Z,4.73
2022-10-10T01:07:33.413Z,3.90
2022-10-10T01:08:35.124Z,4.20
2022-10-10T01:09:37.612Z,4.30
2022-10-10T01:10:46.286Z,3.90
2022-10-10T01:12:06.575Z,5.30
2022-10-10T01:13:18.786Z,4.73
2022-10-10T01:14:28.991Z,4.40
2022-10-10T01:15:30.293Z,7.90
2022-10-10T01:16:49.977Z,5.67
2022-10-10T01:17:59.680Z,3.90
2022-10-10T01:19:21.242Z,5.83
2022-10-10T01:20:31.551Z,5.33
2022-10-10T01:21:43.339Z,6.33
2022-10-10T01:22:56.877Z,5.77
2022-10-10T01:24:18.631Z,5.30
2022-10-10T01:25:30.133Z,5.53
2022-10-10T01:26:49.842Z,3.17
2022-10-10T01:28:00.559Z,3.90
2022-10-10T01:29:01.879Z,4.70
2022-10-10T01:30:06.883Z,6.23
2022-10-10T01:31:09.960Z,4.30
2022-10-10T01:32:16.629Z,6.40
2022-10-10T01:33:36.970Z,4.07
2022-10-10T01:34:50.678Z,3.97
2022-10-10T01:36:10.764Z,4.73
2022-10-10T01:37:30.958Z,5.50
2022-10-10T01:38:43.824Z,4.40
2022-10-10T01:39:59.656Z,4.60
2022-10-10T01:41:07.863Z,5.53
2022-10-10T01:42:18.443Z,6.50
2022-10-10T01:43:19.825Z,7.70
2022-10-10T01:44:21.440Z,4.17
2022-10-10T01:45:23.245Z,6.60
2022-10-10T01:46:24.940Z,7.73
2022-10-10T01:47:26.282Z,4.17
2022-10-10T01:48:30.174Z,4.50
2022-10-10T01:49:34.952Z,6.03
2022-10-10T01:50:44.324Z,4.83
2022-10-10T01:51:55.671Z,7.03
2022-10-10T01:53:08.523Z,4.73
2022-10-10T01:54:16.175Z,4.43
2022-10-10T01:55:27.827Z,4.30
2022-10-10T01:56:47.232Z,4.93
2022-10-10T01:57:48.492Z,5.43
2022-10-10T01:59:07.329Z,4.87
2022-10-10T02:00:09.739Z,4.40
2022-10-10T02:01:17.810Z,6.07
2022-10-10T02:02:19.116Z,3.93
2022-10-10T02:03:27.302Z,6.60
2022-10-10T02:04:34.931Z,5.47
2022-10-10T02:05:39.261Z,5.03
2022-10-10T02:06:44.009Z,5.13
2022-10-10T02:07:58.181Z,5.80
2022-10-10T02:09:04.494Z,5.17
2022-10-10T02:10:06.867Z,4.80
2022-10-10T02:11:10.393Z,4.87
2022-10-10T02:12:12.737Z,5.17
2022-10-10T02:13:15.693Z,7.60
2022-10-10T02:14:24.317Z,6.43
2022-10-10T02:15:26.764Z,7.33
2022-10-10T02:16:30.509Z,4.07
2022-10-10T02:17:34.755Z,4.00
2022-10-10T02:18:36.526Z,6.70
2022-10-10T02:19:38.877Z,7.03
2022-10-10T02:20:41.828Z,4.33
2022-10-10T02:21:43.409Z,4.70
2022-10-10T02:22:45.056Z,4.53
2022-10-10T02:23:47.337Z,4.40
2022-10-10T02:24:49.249Z,4.53
2022-10-10T02:25:52.053Z,4.03
2022-10-10T02:26:56.125Z,5.27
2022-10-10T02:27:57.402Z,5.60
2022-10-10T02:29:25.143Z,3.97
2022-10-10T02:30:26.760Z,6.20
2022-10-10T02:31:31.289Z,6.27
2022-10-10T02:32:36.443Z,5.13
2022-10-10T02:33:49.820Z,3.57
2022-10-10T02:34:52.990Z,5.13
2022-10-10T02:35:54.458Z,4.23
2022-10-10T02:36:58.590Z,6.27
2022-10-10T02:38:01.189Z,5.63
2022-10-10T02:39:02.925Z,5.30
2022-10-10T02:40:05.670Z,6.33
2022-10-10T02:41:08.919Z,6.53
2022-10-10T02:42:12.237Z,4.87
2022-10-10T02:43:14.286Z,5.07
2022-10-10T02:44:15.698Z,4.67
2022-10-10T02:45:17.773Z,3.40
2022-10-10T02:46:19.250Z,6.30
2022-10-10T02:47:20.940Z,6.73
2022-10-10T02:48:22.477Z,5.90
2022-10-10T02:49:28.370Z,4.20
2022-10-10T02:50:30.149Z,5.33
2022-10-10T02:51:31.659Z,5.47
2022-10-10T02:52:32.977Z,7.60
2022-10-10T02:53:35.772Z,4.87
2022-10-10T02:54:37.204Z,5.20
2022-10-10T02:55:38.537Z,5.80
2022-10-10T02:56:39.831Z,5.07
2022-10-10T02:57:41.213Z,5.70
2022-10-10T02:58:42.524Z,5.57
2022-10-10T02:59:43.833Z,5.77
2022-10-10T03:00:45.265Z,6.43
2022-10-10T03:01:46.667Z,4.63
2022-10-10T03:02:48.310Z,6.87
2022-10-10T03:03:49.852Z,6.67
2022-10-10T03:04:51.182Z,4.87
2022-10-10T03:05:52.641Z,5.70
2022-10-10T03:06:54.184Z,4.10
2022-10-10T03:07:55.527Z,7.43
2022-10-10T03:08:56.886Z,7.73
2022-10-10T03:09:58.182Z,4.87
2022-10-10T03:11:00.678Z,4.37
2022-10-10T03:12:01.996Z,4.77
2022-10-10T03:13:03.371Z,6.07
2022-10-10T03:14:04.827Z,4.37
2022-10-10T03:15:10.659Z,8.10
2022-10-10T03:16:12.684Z,4.67
2022-10-10T03:17:14.001Z,5.83
2022-10-10T03:18:15.315Z,6.73
2022-10-10T03:19:16.672Z,7.07
2022-10-10T03:20:18.039Z,4.10
2022-10-10T03:21:19.423Z,8.50
2022-10-10T03:22:20.765Z,5.87
2022-10-10T03:23:22.884Z,8.13
2022-10-10T03:24:24.186Z,4.47
2022-10-10T03:25:25.504Z,3.63
2022-10-10T03:26:26.839Z,5.30
2022-10-10T03:27:28.197Z,4.43
2022-10-10T03:28:29.632Z,5.93
2022-10-10T03:29:30.993Z,8.50
2022-10-10T03:30:32.361Z,4.83
2022-10-10T03:31:33.671Z,5.97
2022-10-10T03:32:35.003Z,4.87
2022-10-10T03:33:36.332Z,8.03
2022-10-10T03:34:37.651Z,6.03
2022-10-10T03:35:39.115Z,5.17
2022-10-10T03:36:40.517Z,7.80
2022-10-10T03:37:41.835Z,4.73
2022-10-10T03:38:43.130Z,6.93
2022-10-10T03:39:44.440Z,5.73
2022-10-10T03:40:46.130Z,5.03
2022-10-10T03:41:50.191Z,5.37
2022-10-10T03:42:51.841Z,3.93
2022-10-10T03:43:53.613Z,8.17
2022-10-10T03:44:54.964Z,5.37
2022-10-10T03:45:56.303Z,4.93
2022-10-10T03:46:57.598Z,5.87
2022-10-10T03:47:58.979Z,5.83
2022-10-10T03:49:00.286Z,5.67
2022-10-10T03:50:01.625Z,6.47
2022-10-10T03:51:02.953Z,4.50
2022-10-10T03:52:04.314Z,6.60
2022-10-10T03:53:05.977Z,7.30
2022-10-10T03:54:07.283Z,6.77
2022-10-10T03:55:08.711Z,6.57
2022-10-10T03:56:10.007Z,6.83
2022-10-10T03:57:11.305Z,5.90
2022-10-10T03:58:12.599Z,5.87
2022-10-10T03:59:13.874Z,5.23
2022-10-10T04:00:15.272Z,7.87
2022-10-10T04:01:16.672Z,4.73
2022-10-10T04:02:18.005Z,4.07
2022-10-10T04:03:19.313Z,4.60
2022-10-10T04:04:20.767Z,5.23
2022-10-10T04:05:22.115Z,4.77
2022-10-10T04:06:23.501Z,3.87
2022-10-10T04:07:24.867Z,6.07
2022-10-10T04:08:26.465Z,7.57
2022-10-10T04:09:27.760Z,6.23
2022-10-10T04:10:29.079Z,7.93
2022-10-10T04:11:30.385Z,7.73
2022-10-10T04:12:31.701Z,6.20
2022-10-10T04:13:33.059Z,5.93
2022-10-10T04:14:34.414Z,8.37
2022-10-10T04:15:35.796Z,5.27
2022-10-10T04:16:37.126Z,5.53
2022-10-10T04:17:38.489Z,5.97
2022-10-10T04:18:39.777Z,6.00
2022-10-10T04:19:41.126Z,5.20
2022-10-10T04:20:42.473Z,6.53
2022-10-10T04:21:43.903Z,5.83
2022-10-10T04:22:45.373Z,5.87
2022-10-10T04:23:46.704Z,6.67
2022-10-10T04:24:48.057Z,7.17
2022-10-10T04:25:52.778Z,5.13
2022-10-10T04:26:54.056Z,5.13
2022-10-10T04:28:00.695Z,5.20
2022-10-10T04:29:03.004Z,4.00
2022-10-10T04:30:04.868Z,5.40
2022-10-10T04:31:06.389Z,7.87
2022-10-10T04:32:07.910Z,6.27
2022-10-10T04:33:09.260Z,8.03
2022-10-10T04:34:10.633Z,6.40
2022-10-10T04:35:11.939Z,7.20
2022-10-10T04:36:13.268Z,5.00
2022-10-10T04:37:14.757Z,7.17
2022-10-10T04:38:16.529Z,5.13
2022-10-10T04:39:17.837Z,7.53
2022-10-10T04:40:24.010Z,8.03
2022-10-10T04:41:27.608Z,5.33
2022-10-10T04:42:28.957Z,4.43
2022-10-10T04:43:30.305Z,6.93
2022-10-10T04:44:31.628Z,5.33
2022-10-10T04:45:37.242Z,5.07
2022-10-10T04:46:38.953Z,6.43
2022-10-10T04:47:40.252Z,6.20
2022-10-10T04:48:41.550Z,6.07
2022-10-10T04:49:43.027Z,6.57
2022-10-10T04:50:44.409Z,5.47
2022-10-10T04:51:45.790Z,5.23
2022-10-10T04:52:47.280Z,4.73
2022-10-10T04:53:50.619Z,6.27
2022-10-10T04:54:52.089Z,8.23
2022-10-10T04:55:53.428Z,5.13
2022-10-10T04:56:54.769Z,7.47
2022-10-10T04:57:56.102Z,7.13
2022-10-10T04:58:57.410Z,5.30
2022-10-10T04:59:59.382Z,6.27
2022-10-10T05:01:00.756Z,6.83
2022-10-10T05:02:02.222Z,6.73
2022-10-10T05:03:03.551Z,6.87
2022-10-10T05:04:05.047Z,4.87
2022-10-10T05:05:06.725Z,6.17
2022-10-10T05:06:08.033Z,4.93
2022-10-10T05:07:09.379Z,5.97
2022-10-10T05:08:10.669Z,5.80
2022-10-10T05:09:13.151Z,6.33
2022-10-10T05:10:14.743Z,5.93
2022-10-10T05:11:16.125Z,6.00
2022-10-10T05:12:17.395Z,5.83
2022-10-10T05:13:18.722Z,6.13
2022-10-10T05:14:20.140Z,4.30
2022-10-10T05:15:22.645Z,7.97
2022-10-10T05:16:24.022Z,6.33
2022-10-10T05:17:25.349Z,6.40
2022-10-10T05:18:26.745Z,7.80
2022-10-10T05:19:28.024Z,7.63
2022-10-10T05:20:29.838Z,7.47
2022-10-10T05:21:31.632Z,7.67
2022-10-10T05:22:32.948Z,7.07
2022-10-10T05:23:34.569Z,5.53
2022-10-10T05:24:35.863Z,5.43
2022-10-10T05:25:37.183Z,4.83
2022-10-10T05:26:42.931Z,7.00
2022-10-10T05:27:44.615Z,5.97
2022-10-10T05:28:46.159Z,9.43
2022-10-10T05:29:47.509Z,7.30
2022-10-10T05:30:50.306Z,9.17
2022-10-10T05:31:51.619Z,6.40
2022-10-10T05:32:53.245Z,7.53
2022-10-10T05:33:55.174Z,8.90
2022-10-10T05:34:56.502Z,13.63
2022-10-10T05:36:04.585Z,9.03
2022-10-10T05:37:05.975Z,7.90
2022-10-10T05:38:07.430Z,9.40
2022-10-10T05:39:09.023Z,9.57
2022-10-10T05:40:10.485Z,7.07
2022-10-10T05:41:12.556Z,9.17
2022-10-10T05:42:14.306Z,7.80
2022-10-10T05:43:15.673Z,7.67
2022-10-10T05:44:17.033Z,8.40
2022-10-10T05:45:18.406Z,9.43
2022-10-10T05:46:20.424Z,6.30
2022-10-10T05:47:26.754Z,8.57
2022-10-10T05:48:29.087Z,7.03
2022-10-10T05:49:30.427Z,7.07
2022-10-10T05:50:36.325Z,9.67
2022-10-10T05:51:37.628Z,7.93
2022-10-10T05:52:38.935Z,7.20
2022-10-10T05:53:40.284Z,6.17
2022-10-10T05:54:41.593Z,7.60
2022-10-10T05:55:44.421Z,7.13
2022-10-10T05:56:46.299Z,9.53
2022-10-10T05:57:47.603Z,7.40
2022-10-10T05:58:50.985Z,7.40
2022-10-10T05:59:52.333Z,7.10
2022-10-10T06:00:53.824Z,8.40
2022-10-10T06:01:55.579Z,9.60
2022-10-10T06:02:58.343Z,11.00
2022-10-10T06:03:59.816Z,12.17
2022-10-10T06:05:01.258Z,7.70
2022-10-10T06:06:02.902Z,7.20
2022-10-10T06:07:04.237Z,6.17
2022-10-10T06:08:10.729Z,8.17
2022-10-10T06:09:13.246Z,6.53
2022-10-10T06:10:14.570Z,11.03
2022-10-10T06:11:17.196Z,10.20
2022-10-10T06:12:18.558Z,7.47
2022-10-10T06:13:24.031Z,7.63
2022-10-10T06:14:25.797Z,6.63
2022-10-10T06:15:27.244Z,7.97
2022-10-10T06:16:28.591Z,11.40
2022-10-10T06:17:29.999Z,6.23
2022-10-10T06:18:31.344Z,7.57
2022-10-10T06:19:32.721Z,8.40
2022-10-10T06:20:38.174Z,7.70
2022-10-10T06:21:39.559Z,6.93
2022-10-10T06:22:40.849Z,10.13
2022-10-10T06:23:42.431Z,9.27
2022-10-10T06:24:43.749Z,8.17
2022-10-10T06:25:45.044Z,9.13
2022-10-10T06:26:46.361Z,8.57
2022-10-10T06:27:47.701Z,7.70
2022-10-10T06:28:50.757Z,8.03
2022-10-10T06:29:52.053Z,6.93
2022-10-10T06:30:53.357Z,7.77
2022-10-10T06:31:54.769Z,6.67
2022-10-10T06:32:57.591Z,8.83
2022-10-10T06:33:59.239Z,8.70
2022-10-10T06:35:00.537Z,8.10
2022-10-10T06:36:04.837Z,11.17
2022-10-10T06:37:06.214Z,6.97
2022-10-10T06:38:07.572Z,6.57
2022-10-10T06:39:08.910Z,7.37
2022-10-10T06:40:10.465Z,12.00
2022-10-10T06:41:11.901Z,7.57
2022-10-10T06:42:13.937Z,8.13
2022-10-10T06:43:18.804Z,8.20
2022-10-10T06:44:20.470Z,8.87
2022-10-10T06:45:21.767Z,9.73
2022-10-10T06:46:23.059Z,9.50
2022-10-10T06:47:24.360Z,10.20
2022-10-10T06:48:25.935Z,8.63
2022-10-10T06:49:27.303Z,12.33
2022-10-10T06:50:28.604Z,8.00
2022-10-10T06:51:29.922Z,8.90
2022-10-10T06:52:31.264Z,7.77
2022-10-10T06:53:32.833Z,8.53
2022-10-10T06:54:34.268Z,5.73
2022-10-10T06:55:35.569Z,7.67
2022-10-10T06:56:36.878Z,8.63
2022-10-10T06:57:38.192Z,6.27
2022-10-10T06:58:39.477Z,9.00
2022-10-10T06:59:40.771Z,6.87
2022-10-10T07:00:42.032Z,7.93
2022-10-10T07:01:43.350Z,7.50
2022-10-10T07:02:44.663Z,8.10
2022-10-10T07:03:46.211Z,10.87
2022-10-10T07:04:47.503Z,9.60
2022-10-10T07:05:49.943Z,6.67
2022-10-10T07:06:51.373Z,9.13
2022-10-10T07:07:53.109Z,9.20
2022-10-10T07:08:54.411Z,8.17
2022-10-10T07:09:55.713Z,10.20
2022-10-10T07:10:57.133Z,9.03
2022-10-10T07:11:58.449Z,7.20
2022-10-10T07:12:59.744Z,7.30
2022-10-10T07:14:01.167Z,7.37
2022-10-10T07:15:02.591Z,11.43
2022-10-10T07:16:04.785Z,8.30
2022-10-10T07:17:06.084Z,6.33
2022-10-10T07:18:07.567Z,8.03
2022-10-10T07:19:08.857Z,10.47
2022-10-10T07:20:10.165Z,10.57
2022-10-10T07:21:11.566Z,14.03
2022-10-10T07:22:12.848Z,10.10
2022-10-10T07:23:14.684Z,11.00
2022-10-10T07:24:16.053Z,11.27
2022-10-10T07:25:17.387Z,10.63
2022-10-10T07:26:22.085Z,6.93
2022-10-10T07:27:23.402Z,8.67
2022-10-10T07:28:24.762Z,10.20
2022-10-10T07:29:28.119Z,9.50
2022-10-10T07:30:29.426Z,11.23
2022-10-10T07:31:30.753Z,9.47
2022-10-10T07:32:32.037Z,12.47
2022-10-10T07:33:38.155Z,11.70
2022-10-10T07:34:39.609Z,12.17
2022-10-10T07:35:41.232Z,12.50
2022-10-10T07:36:43.374Z,13.20
2022-10-10T07:37:45.191Z,14.07
2022-10-10T07:38:50.681Z,16.43
2022-10-10T07:39:52.781Z,17.70
2022-10-10T07:40:54.161Z,16.60
2022-10-10T07:41:55.479Z,11.17
2022-10-10T07:42:56.894Z,12.07
2022-10-10T07:43:58.221Z,15.30
2022-10-10T07:44:59.499Z,13.57
2022-10-10T07:47:02.020Z,11.73
2022-10-10T07:48:03.545Z,11.73
2022-10-10T07:49:05.068Z,12.73
2022-10-10T07:50:07.576Z,10.67
2022-10-10T07:51:09.226Z,8.60
2022-10-10T07:52:10.530Z,10.00
2022-10-10T07:53:11.897Z,10.03
2022-10-10T07:54:13.190Z,10.07
2022-10-10T07:55:14.493Z,10.20
2022-10-10T07:56:15.789Z,11.90
2022-10-10T07:57:17.098Z,13.00
2022-10-10T07:58:18.486Z,9.57
2022-10-10T07:59:19.793Z,7.73
2022-10-10T08:00:21.195Z,7.57
2022-10-10T08:01:22.622Z,9.17
2022-10-10T08:02:23.940Z,11.83
2022-10-10T08:03:25.285Z,8.47
2022-10-10T08:04:26.568Z,9.23
2022-10-10T08:05:27.972Z,8.27
2022-10-10T08:06:29.335Z,5.57
2022-10-10T08:07:30.691Z,6.17
2022-10-10T08:08:34.375Z,14.07
2022-10-10T08:09:36.365Z,12.13
2022-10-10T08:10:37.949Z,8.47
2022-10-10T08:11:39.253Z,8.00
2022-10-10T08:12:40.556Z,8.83
2022-10-10T08:13:42.422Z,16.67
2022-10-10T08:14:43.778Z,9.07
2022-10-10T08:15:45.131Z,9.87
2022-10-10T08:16:46.448Z,11.07
2022-10-10T08:17:47.850Z,10.93
2022-10-10T08:18:49.225Z,8.37
2022-10-10T08:19:50.551Z,7.53
2022-10-10T08:21:02.024Z,6.63
2022-10-10T08:22:03.378Z,8.10
2022-10-10T08:23:04.755Z,6.60
2022-10-10T08:24:06.501Z,6.93
2022-10-10T08:25:08.102Z,6.30
2022-10-10T08:26:10.901Z,5.33
2022-10-10T08:27:12.309Z,6.13
2022-10-10T08:28:13.641Z,6.17
2022-10-10T08:29:14.997Z,5.20
2022-10-10T08:30:16.351Z,4.97
2022-10-10T08:31:19.732Z,5.70
2022-10-10T08:32:21.082Z,5.33
2022-10-10T08:33:22.899Z,6.47
2022-10-10T08:34:24.360Z,6.67
2022-10-10T08:35:25.776Z,4.67
2022-10-10T08:36:27.528Z,4.27
2022-10-10T08:37:33.811Z,7.33
2022-10-10T08:38:37.890Z,6.67
2022-10-10T08:39:39.193Z,6.07
2022-10-10T08:40:45.582Z,9.90
2022-10-10T08:41:52.114Z,8.83
2022-10-10T08:42:54.736Z,9.87
2022-10-10T08:44:02.008Z,7.03
2022-10-10T08:45:06.593Z,7.13
2022-10-10T08:46:10.768Z,8.60
2022-10-10T08:47:15.343Z,7.57
2022-10-10T08:48:21.105Z,7.87
2022-10-10T08:49:25.424Z,8.17
2022-10-10T08:50:29.169Z,9.03
2022-10-10T08:51:32.083Z,10.17
2022-10-10T08:52:41.251Z,9.23
2022-10-10T08:53:44.436Z,6.63
2022-10-10T08:54:47.848Z,6.43
2022-10-10T08:55:49.599Z,6.43
2022-10-10T08:56:50.965Z,5.73
2022-10-10T08:57:57.983Z,6.47
2022-10-10T08:59:10.498Z,6.00
2022-10-10T09:00:16.596Z,5.33
2022-10-10T09:01:25.082Z,6.97
2022-10-10T09:02:50.069Z,5.53
2022-10-10T09:03:59.176Z,7.67
2022-10-10T09:05:00.544Z,9.50
2022-10-10T09:06:20.321Z,5.43
2022-10-10T09:07:24.540Z,8.10
2022-10-10T09:08:38.710Z,8.30
2022-10-10T09:09:43.323Z,6.33
2022-10-10T09:10:50.651Z,8.27
2022-10-10T09:11:51.910Z,6.33
2022-10-10T09:12:59.441Z,9.23
2022-10-10T09:14:22.413Z,5.73
2022-10-10T09:15:25.753Z,7.40
2022-10-10T09:16:40.156Z,7.00
2022-10-10T09:17:47.284Z,4.80
2022-10-10T09:19:02.816Z,5.60
2022-10-10T09:20:17.023Z,5.63
2022-10-10T09:21:20.294Z,7.80
2022-10-10T09:22:27.490Z,6.77
2022-10-10T09:23:31.360Z,8.67
2022-10-10T09:24:32.662Z,6.73
2022-10-10T09:25:35.853Z,6.63
2022-10-10T09:26:43.968Z,6.37
2022-10-10T09:27:48.622Z,5.50
2022-10-10T09:28:57.170Z,7.83
2022-10-10T09:30:03.663Z,7.40
2022-10-10T09:31:07.181Z,5.83
2022-10-10T09:32:11.835Z,7.40
2022-10-10T09:33:28.682Z,6.67
2022-10-10T09:34:36.224Z,5.47
2022-10-10T09:35:38.990Z,6.13
2022-10-10T09:36:40.509Z,9.17
2022-10-10T09:37:47.199Z,6.60
2022-10-10T09:38:51.202Z,8.10
2022-10-10T09:39:55.587Z,11.53
2022-10-10T09:41:05.979Z,8.93
2022-10-10T09:42:30.374Z,8.13
2022-10-10T09:43:33.556Z,8.37
2022-10-10T09:44:34.965Z,6.40
2022-10-10T09:45:38.905Z,6.63
2022-10-10T09:46:40.444Z,4.90
2022-10-10T09:47:41.816Z,5.90
2022-10-10T09:48:43.718Z,5.33
2022-10-10T09:49:45.433Z,6.10
2022-10-10T09:50:46.749Z,6.00
2022-10-10T09:51:48.740Z,5.40
2022-10-10T09:52:51.555Z,8.03
2022-10-10T09:53:52.913Z,6.37
2022-10-10T09:54:56.539Z,4.97
2022-10-10T09:55:58.448Z,6.47
2022-10-10T09:56:59.871Z,7.83
2022-10-10T09:58:06.744Z,5.83
2022-10-10T09:59:28.019Z,6.33
2022-10-10T10:00:33.993Z,7.80
2022-10-10T10:01:35.374Z,6.23
2022-10-10T10:02:36.733Z,8.77
2022-10-10T10:03:38.040Z,4.27
2022-10-10T10:04:39.410Z,5.73
2022-10-10T10:05:43.443Z,6.77
2022-10-10T10:06:46.228Z,7.20
2022-10-10T10:07:48.270Z,4.80
2022-10-10T10:08:52.434Z,8.23
2022-10-10T10:09:55.943Z,7.17
2022-10-10T10:10:58.252Z,5.80
2022-10-10T10:12:00.223Z,6.73
2022-10-10T10:13:01.525Z,6.03
2022-10-10T10:14:03.023Z,5.60
2022-10-10T10:15:06.346Z,6.47
2022-10-10T10:16:09.964Z,9.37
2022-10-10T10:17:14.157Z,6.40
2022-10-10T10:18:21.589Z,5.40
2022-10-10T10:19:32.029Z,5.37
2022-10-10T10:20:35.080Z,6.00
2022-10-10T10:21:47.705Z,5.37
2022-10-10T10:22:49.155Z,5.57
2022-10-10T10:23:50.457Z,7.27
2022-10-10T10:24:51.749Z,5.23
2022-10-10T10:25:59.972Z,7.33
2022-10-10T10:27:31.046Z,5.93
2022-10-10T10:28:40.316Z,5.47
2022-10-10T10:29:45.930Z,8.30
2022-10-10T10:30:48.523Z,7.43
2022-10-10T10:32:08.605Z,5.53
2022-10-10T10:33:15.730Z,4.20
2022-10-10T10:34:17.025Z,7.63
2022-10-10T10:35:27.386Z,6.20
2022-10-10T10:36:58.134Z,5.23
2022-10-10T10:37:59.525Z,5.77
2022-10-10T10:39:16.090Z,7.87
2022-10-10T10:40:36.035Z,4.90
2022-10-10T10:41:43.531Z,8.47
2022-10-10T10:43:03.779Z,7.23
2022-10-10T10:44:23.972Z,5.57
2022-10-10T10:45:34.330Z,4.83
2022-10-10T10:46:41.773Z,8.53
2022-10-10T10:47:55.231Z,5.87
2022-10-10T10:49:17.936Z,6.50
2022-10-10T10:50:30.871Z,5.60
2022-10-10T10:51:51.177Z,8.67
2022-10-10T10:52:58.812Z,7.77
2022-10-10T10:54:13.216Z,4.97
2022-10-10T10:55:26.157Z,6.93
2022-10-10T10:56:38.812Z,5.07
2022-10-10T10:58:04.101Z,7.40
2022-10-10T10:59:35.655Z,9.50
2022-10-10T11:01:23.032Z,6.70
2022-10-10T11:02:11.038Z,7.00
2022-10-10T11:05:16.501Z,7.60
2022-10-10T11:05:24.472Z,6.90
2022-10-10T11:06:33.997Z,8.70
2022-10-10T11:07:42.420Z,4.57
2022-10-10T11:08:49.458Z,5.97
2022-10-10T11:09:57.164Z,7.53
2022-10-10T11:11:04.242Z,5.27
2022-10-10T11:12:15.543Z,5.87
2022-10-10T11:13:22.356Z,5.30
2022-10-10T11:14:36.705Z,6.50
2022-10-10T11:16:05.279Z,5.97
2022-10-10T11:17:19.647Z,5.10
2022-10-10T11:18:36.797Z,5.27
2022-10-10T11:19:41.528Z,6.17
2022-10-10T11:20:45.680Z,6.63
2022-10-10T11:21:49.672Z,6.82
2022-10-10T11:22:58.595Z,5.75
2022-10-10T11:24:06.658Z,9.55
2022-10-10T11:25:17.278Z,7.57
2022-10-10T11:26:29.411Z,6.80
2022-10-10T11:27:42.980Z,5.70
2022-10-10T11:28:49.457Z,6.57
2022-10-10T11:30:11.586Z,5.77
2022-10-10T11:31:15.938Z,8.00
2022-10-10T11:33:41.384Z,6.53
2022-10-10T11:34:50.976Z,5.40
2022-10-10T11:35:58.750Z,10.87
2022-10-10T11:37:03.896Z,7.50
2022-10-10T11:38:11.380Z,5.80
2022-10-10T11:39:33.317Z,7.88
2022-10-10T11:40:49.768Z,7.57
2022-10-10T11:41:54.328Z,6.45
2022-10-10T11:42:58.899Z,9.93
2022-10-10T11:44:12.588Z,9.70
2022-10-10T11:45:21.298Z,6.33
2022-10-10T11:46:31.748Z,5.20
2022-10-10T11:47:47.963Z,6.50
2022-10-10T11:48:57.588Z,9.20
2022-10-10T11:50:18.722Z,5.50
2022-10-10T11:51:27.542Z,6.18
2022-10-10T11:52:47.284Z,5.47
2022-10-10T11:53:51.046Z,7.05
2022-10-10T11:54:59.169Z,8.00
2022-10-10T11:56:20.920Z,8.27
2022-10-10T11:57:43.516Z,9.20
2022-10-10T11:59:05.646Z,8.97
2022-10-10T12:00:10.790Z,7.90
2022-10-10T12:01:18.145Z,4.57
2022-10-10T12:02:20.238Z,9.18
2022-10-10T12:03:24.126Z,8.33
2022-10-10T12:04:34.439Z,7.63
2022-10-10T12:05:38.788Z,7.15
2022-10-10T12:06:56.240Z,7.47
2022-10-10T12:07:58.154Z,5.75
2022-10-10T12:09:19.051Z,7.88
2022-10-10T12:10:40.673Z,7.68
2022-10-10T12:12:02.286Z,5.88
2022-10-10T12:13:11.180Z,8.50
2022-10-10T12:14:17.170Z,7.60
2022-10-10T12:15:25.708Z,10.38
2022-10-10T12:16:30.666Z,6.90
2022-10-10T12:17:33.595Z,9.73
2022-10-10T12:18:43.600Z,9.03
2022-10-10T12:19:47.320Z,5.45
2022-10-10T12:20:48.687Z,7.68
2022-10-10T12:22:01.014Z,7.25
2022-10-10T12:23:14.580Z,8.48
2022-10-10T12:24:15.990Z,9.60
2022-10-10T12:25:35.000Z,8.15
2022-10-10T12:26:54.666Z,6.70
2022-10-10T12:28:14.528Z,8.50
2022-10-10T12:29:35.886Z,9.02
2022-10-10T12:30:37.258Z,8.63
2022-10-10T12:31:39.643Z,6.97
2022-10-10T12:32:45.119Z,10.68
2022-10-10T12:33:46.438Z,6.72
2022-10-10T12:34:47.861Z,6.00
2022-10-10T12:35:49.557Z,7.20
2022-10-10T12:36:58.380Z,4.55
2022-10-10T12:38:06.053Z,5.63
2022-10-10T12:39:10.936Z,7.43
2022-10-10T12:40:12.271Z,7.82
2022-10-10T12:41:14.813Z,8.60
2022-10-10T12:42:29.505Z,7.10
2022-10-10T12:43:36.790Z,10.00
2022-10-10T12:44:42.658Z,7.43
2022-10-10T12:45:57.569Z,7.93
2022-10-10T12:47:14.267Z,6.35
2022-10-10T12:48:19.423Z,5.95
2022-10-10T12:49:22.216Z,11.20
2022-10-10T12:50:35.271Z,7.82
2022-10-10T12:51:36.755Z,7.85
2022-10-10T12:52:49.609Z,6.88
2022-10-10T12:53:54.319Z,8.05
2022-10-10T12:55:06.572Z,11.05
2022-10-10T12:56:11.183Z,8.75
2022-10-10T12:57:24.044Z,11.55
2022-10-10T12:58:28.256Z,9.75
2022-10-10T12:59:35.168Z,10.80
2022-10-10T13:00:37.848Z,7.72
2022-10-10T13:01:40.655Z,9.80
2022-10-10T13:02:46.652Z,12.27
2022-10-10T13:03:48.605Z,10.38
2022-10-10T13:04:51.495Z,6.00
2022-10-10T13:05:54.426Z,8.00
2022-10-10T13:06:57.618Z,11.48
2022-10-10T13:08:05.044Z,10.20
2022-10-10T13:09:11.720Z,9.98
2022-10-10T13:10:20.980Z,7.00
2022-10-10T13:11:22.747Z,7.63
2022-10-10T13:12:29.394Z,8.90
2022-10-10T13:13:31.047Z,10.02
2022-10-10T13:14:45.664Z,10.40
2022-10-10T13:15:51.585Z,7.32
2022-10-10T13:16:53.486Z,6.60
2022-10-10T13:17:55.200Z,6.85
2022-10-10T13:18:58.194Z,9.27
2022-10-10T13:20:01.016Z,6.70
2022-10-10T13:21:04.314Z,8.13
2022-10-10T13:22:07.614Z,8.75
2022-10-10T13:23:12.597Z,7.88
2022-10-10T13:24:17.488Z,6.75
2022-10-10T13:25:20.063Z,8.90
2022-10-10T13:26:21.754Z,6.72
2022-10-10T13:27:35.161Z,6.75
2022-10-10T13:28:39.627Z,7.25
2022-10-10T13:29:41.533Z,6.05
2022-10-10T13:30:43.292Z,7.28
2022-10-10T13:31:45.181Z,6.78
2022-10-10T13:32:47.064Z,8.32
2022-10-10T13:33:49.011Z,8.50
2022-10-10T13:34:53.864Z,9.63
2022-10-10T13:36:03.721Z,9.88
2022-10-10T13:37:08.329Z,7.70
2022-10-10T13:38:14.152Z,9.30
2022-10-10T13:39:16.790Z,7.20
2022-10-10T13:40:18.825Z,8.05
2022-10-10T13:41:21.150Z,8.13
2022-10-10T13:42:22.998Z,10.93
2022-10-10T13:43:25.089Z,7.50
2022-10-10T13:44:47.857Z,7.13
2022-10-10T13:45:59.779Z,9.77
2022-10-10T13:47:21.600Z,8.55
2022-10-10T13:48:35.391Z,10.65
2022-10-10T13:49:37.216Z,7.63
2022-10-10T13:50:44.612Z,11.32
2022-10-10T13:51:46.657Z,8.93
2022-10-10T13:52:48.288Z,6.43
2022-10-10T13:53:51.301Z,7.25
2022-10-10T13:54:52.773Z,8.57
2022-10-10T13:56:09.287Z,10.18
2022-10-10T13:57:13.515Z,7.90
2022-10-10T13:58:15.470Z,8.70
2022-10-10T13:59:17.863Z,8.40
2022-10-10T14:00:20.992Z,11.85
2022-10-10T14:01:31.057Z,10.27
2022-10-10T14:02:42.322Z,7.70
2022-10-10T14:03:45.790Z,9.18
2022-10-10T14:04:53.672Z,8.82
2022-10-10T14:05:55.675Z,10.23
2022-10-10T14:07:10.813Z,8.38
2022-10-10T14:08:17.178Z,9.63
2022-10-10T14:09:25.528Z,7.82
2022-10-10T14:10:28.132Z,8.13
2022-10-10T14:11:31.125Z,8.23
2022-10-10T14:12:41.495Z,10.35
2022-10-10T14:13:47.786Z,6.43
2022-10-10T14:14:50.281Z,9.25
2022-10-10T14:15:52.192Z,8.68
2022-10-10T14:17:00.946Z,7.57
2022-10-10T14:18:03.692Z,7.15
2022-10-10T14:19:13.833Z,10.63
2022-10-10T14:20:15.920Z,12.60
2022-10-10T14:21:19.799Z,9.38
2022-10-10T14:22:24.336Z,14.02